Time;durP1;ratioP1;P1;durP2;ratioP2;P2;SDS_P1;SDS_P2;PMS_P1;PMS_P2;Temp;Humidity;BMP_temperature;BMP_pressure;BME280_temperature;BME280_humidity;BME280_pressure;Samples;Min_cycle;Max_cycle;Signal;HPM_P1;HPM_P2
2021/04/30 00:00:18;;;;;;;0.68;0.63;;;;;;;17.59;43.36;95469.13;5061883;28;21426;-55
2021/04/30 00:02:44;;;;;;;0.70;0.70;;;;;;;17.59;43.26;95469.13;5060305;28;20073;-56
2021/04/30 00:05:10;;;;;;;0.85;0.85;;;;;;;17.58;43.44;95466.72;5063922;28;20048;-57
2021/04/30 00:07:36;;;;;;;0.88;0.77;;;;;;;17.58;43.63;95461.28;5063657;28;20048;-56
2021/04/30 00:10:02;;;;;;;0.57;0.57;;;;;;;17.57;43.23;95463.19;5063578;28;20185;-56
2021/04/30 00:12:28;;;;;;;0.60;0.60;;;;;;;17.57;43.49;95446.16;5062628;28;20056;-56
2021/04/30 00:14:54;;;;;;;0.95;0.80;;;;;;;17.55;43.04;95449.13;5064079;28;20126;-56
2021/04/30 00:17:19;;;;;;;0.68;0.68;;;;;;;17.56;43.16;95441.81;5062853;28;20040;-56
2021/04/30 00:19:45;;;;;;;0.50;0.50;;;;;;;17.55;43.31;95451.03;5064627;28;20074;-55
2021/04/30 00:22:10;;;;;;;0.80;0.80;;;;;;;17.54;43.45;95449.41;5063773;28;20044;-56
2021/04/30 00:24:36;;;;;;;0.70;0.70;;;;;;;17.53;43.02;95455.94;5063854;28;20682;-55
2021/04/30 00:27:02;;;;;;;0.88;0.60;;;;;;;17.52;43.47;95451.59;5063836;28;20045;-56
2021/04/30 00:29:28;;;;;;;0.93;0.80;;;;;;;17.52;43.57;95454.31;5064381;28;20515;-55
2021/04/30 00:31:54;;;;;;;0.95;0.68;;;;;;;17.50;43.33;95464.63;5067128;28;20102;-56
2021/04/30 00:34:19;;;;;;;0.63;0.63;;;;;;;17.50;43.50;95453.78;5067760;28;20135;-56
2021/04/30 00:36:45;;;;;;;0.75;0.75;;;;;;;17.48;43.13;95466.81;5068124;28;20508;-56
2021/04/30 00:39:11;;;;;;;0.60;0.60;;;;;;;17.47;42.99;95459.78;5067742;28;20583;-56
2021/04/30 00:41:38;;;;;;;0.60;0.60;;;;;;;17.47;42.91;95451.66;5067594;28;20079;-56
2021/04/30 00:44:04;;;;;;;0.65;0.60;;;;;;;17.45;43.09;95448.44;5047133;28;20060;-56
2021/04/30 00:46:30;;;;;;;0.70;0.70;;;;;;;17.45;43.11;95459.28;5047057;28;20411;-56
2021/04/30 00:48:56;;;;;;;1.08;0.63;;;;;;;17.44;43.17;95442.19;5046661;28;20044;-55
2021/04/30 00:51:21;;;;;;;0.63;0.63;;;;;;;17.43;43.39;95440.59;5047031;28;20055;-55
2021/04/30 00:53:47;;;;;;;0.68;0.68;;;;;;;17.42;43.13;95436.25;5065852;28;20539;-55
2021/04/30 00:56:12;;;;;;;0.73;0.60;;;;;;;17.41;43.38;95438.16;5046414;28;20064;-56
2021/04/30 00:58:38;;;;;;;0.73;0.73;;;;;;;17.40;43.17;95439.28;5047512;28;20049;-55
2021/04/30 01:01:03;;;;;;;0.77;0.60;;;;;;;17.40;43.02;95433.03;5065947;28;20044;-56
2021/04/30 01:03:29;;;;;;;0.75;0.75;;;;;;;17.38;43.12;95430.63;5066046;28;20143;-56
2021/04/30 01:05:55;;;;;;;0.70;0.70;;;;;;;17.39;43.30;95434.16;5036975;28;20559;-56
2021/04/30 01:08:20;;;;;;;0.60;0.60;;;;;;;17.38;42.96;95430.63;5046941;28;20072;-55
2021/04/30 01:10:46;;;;;;;0.60;0.60;;;;;;;17.36;43.32;95432.81;5047413;28;20131;-56
2021/04/30 01:13:12;;;;;;;0.80;0.70;;;;;;;17.35;42.88;95435.81;5061605;28;20133;-55
2021/04/30 01:15:38;;;;;;;0.50;0.50;;;;;;;17.35;42.97;95438.50;5065173;28;20774;-56
2021/04/30 01:18:04;;;;;;;0.60;0.50;;;;;;;17.34;42.77;95439.59;5066796;28;20071;-55
2021/04/30 01:20:29;;;;;;;0.60;0.60;;;;;;;17.34;43.09;95443.13;5067216;28;20064;-55
2021/04/30 01:22:55;;;;;;;0.60;0.60;;;;;;;17.34;42.97;95439.59;5067132;28;20079;-55
2021/04/30 01:25:26;;;;;;;0.60;0.60;;;;;;;17.33;43.15;95424.47;5067074;28;20098;-56
2021/04/30 01:27:52;;;;;;;0.70;0.70;;;;;;;17.31;42.98;95413.91;5066571;28;20621;-55
2021/04/30 01:30:20;;;;;;;0.75;0.75;;;;;;;17.31;42.98;95418.53;5067209;28;20044;-56
2021/04/30 01:32:46;;;;;;;0.50;0.50;;;;;;;17.30;43.36;95416.91;5066008;28;20403;-56
2021/04/30 01:35:17;;;;;;;0.70;0.70;;;;;;;17.28;43.14;95409.09;5065696;28;20044;-56
2021/04/30 01:37:43;;;;;;;0.70;0.70;;;;;;;17.29;43.10;95405.28;5065262;28;20048;-55
2021/04/30 01:40:16;;;;;;;0.68;0.68;;;;;;;17.28;42.72;95403.66;5065839;28;20425;-55
2021/04/30 01:43:11;;;;;;;1.10;1.00;;;;;;;17.26;43.25;95413.97;5065727;28;20076;-56
2021/04/30 01:45:52;;;;;;;1.15;1.05;;;;;;;17.27;43.12;95409.34;5066424;28;20047;-56
2021/04/30 01:48:20;;;;;;;1.13;1.13;;;;;;;17.24;42.75;95415.34;5065990;28;20068;-56
2021/04/30 01:50:46;;;;;;;0.80;0.80;;;;;;;17.23;43.02;95414.53;5067147;28;20055;-56
2021/04/30 01:53:13;;;;;;;0.90;0.90;;;;;;;17.22;43.25;95419.13;5066510;28;20056;-56
2021/04/30 01:55:38;;;;;;;0.80;0.80;;;;;;;17.23;42.92;95417.22;5067196;28;20131;-56
2021/04/30 01:58:04;;;;;;;1.00;0.80;;;;;;;17.22;42.81;95412.94;5065084;28;20052;-55
2021/04/30 02:00:30;;;;;;;0.80;0.80;;;;;;;17.21;43.21;95412.13;5060476;28;20053;-56
2021/04/30 02:02:57;;;;;;;1.20;0.80;;;;;;;17.21;42.93;95397.78;5045162;28;20084;-56
2021/04/30 02:05:24;;;;;;;0.85;0.85;;;;;;;17.21;43.17;95403.19;5046195;28;20111;-56
2021/04/30 02:07:50;;;;;;;0.70;0.68;;;;;;;17.21;43.14;95395.06;5046685;28;20047;-56
2021/04/30 02:10:21;;;;;;;0.75;0.73;;;;;;;17.19;43.00;95389.97;5046637;28;20529;-56
2021/04/30 02:12:46;;;;;;;0.77;0.77;;;;;;;17.18;43.25;95393.75;5062149;28;20515;-56
2021/04/30 02:15:13;;;;;;;1.00;0.88;;;;;;;17.17;43.19;95394.84;5065707;28;20072;-55
2021/04/30 02:17:39;;;;;;;0.82;0.82;;;;;;;17.17;43.05;95396.72;5065836;28;20121;-56
2021/04/30 02:20:05;;;;;;;0.70;0.70;;;;;;;17.16;42.89;95390.50;5064696;28;20121;-56
2021/04/30 02:22:31;;;;;;;1.15;0.70;;;;;;;17.16;43.13;95395.13;5064565;28;20041;-55
2021/04/30 02:24:57;;;;;;;1.75;0.75;;;;;;;17.16;42.89;95389.72;5065710;28;20048;-56
2021/04/30 02:27:23;;;;;;;0.70;0.70;;;;;;;17.15;43.07;95385.38;5065946;28;20063;-55
2021/04/30 02:29:49;;;;;;;0.70;0.70;;;;;;;17.14;43.13;95384.59;5066928;28;20449;-55
2021/04/30 02:32:14;;;;;;;0.70;0.70;;;;;;;17.14;43.24;95383.78;5058735;28;20052;-56
2021/04/30 02:34:40;;;;;;;0.60;0.60;;;;;;;17.13;43.13;95380.28;5064214;28;20040;-56
2021/04/30 02:37:05;;;;;;;0.75;0.75;;;;;;;17.13;42.93;95379.44;5065740;28;20067;-56
2021/04/30 02:39:32;;;;;;;0.80;0.80;;;;;;;17.13;42.93;95387.56;5064826;28;20158;-56
2021/04/30 02:41:58;;;;;;;1.17;1.00;;;;;;;17.11;43.03;95387.03;5064923;28;20047;-55
2021/04/30 02:44:23;;;;;;;0.95;0.95;;;;;;;17.09;43.29;95365.72;5063918;28;20657;-55
2021/04/30 02:46:49;;;;;;;0.80;0.80;;;;;;;17.10;42.85;95369.22;5066010;28;20132;-55
2021/04/30 02:49:17;;;;;;;1.42;1.00;;;;;;;17.09;43.08;95363.00;5064790;28;20584;-55
2021/04/30 02:51:42;;;;;;;0.95;0.95;;;;;;;17.09;42.71;95367.59;5064033;28;20834;-56
2021/04/30 02:54:08;;;;;;;1.17;1.17;;;;;;;17.08;42.89;95360.56;5064725;28;20044;-55
2021/04/30 02:56:35;;;;;;;1.80;1.50;;;;;;;17.08;43.05;95352.47;5050368;28;20095;-56
2021/04/30 02:59:04;;;;;;;1.25;1.15;;;;;;;17.07;43.11;95345.41;5064452;28;20052;-55
2021/04/30 03:01:29;;;;;;;1.95;1.85;;;;;;;17.05;43.10;95339.53;5064347;28;20032;-55
2021/04/30 03:03:55;;;;;;;1.63;1.52;;;;;;;17.06;43.19;95343.81;5063097;28;20056;-55
2021/04/30 03:06:20;;;;;;;1.50;1.40;;;;;;;17.06;42.73;95346.53;5064453;28;20036;-56
2021/04/30 03:08:52;;;;;;;1.63;1.52;;;;;;;17.04;42.97;95341.41;5065576;28;20099;-56
2021/04/30 03:11:17;;;;;;;2.47;1.80;;;;;;;17.03;42.79;95345.22;5064695;28;20072;-55
2021/04/30 03:13:43;;;;;;;2.08;1.88;;;;;;;17.04;43.28;95348.72;5061216;28;20091;-56
2021/04/30 03:16:08;;;;;;;2.22;2.03;;;;;;;17.01;42.68;95345.47;5064415;28;20155;-55
2021/04/30 03:18:34;;;;;;;1.67;1.58;;;;;;;17.01;42.71;95337.38;5063844;28;20095;-55
2021/04/30 03:21:00;;;;;;;2.63;2.17;;;;;;;17.01;42.97;95340.06;5064320;28;20105;-56
2021/04/30 03:23:25;;;;;;;1.75;1.63;;;;;;;17.00;42.85;95332.25;5064211;28;20114;-55
2021/04/30 03:25:51;;;;;;;1.70;1.60;;;;;;;17.00;42.89;95326.81;5064600;28;20129;-56
2021/04/30 03:28:16;;;;;;;1.50;1.40;;;;;;;16.99;42.79;95323.31;5065656;28;20083;-56
2021/04/30 03:30:42;;;;;;;1.73;1.60;;;;;;;16.99;43.12;95325.22;5064291;28;20508;-55
2021/04/30 03:33:07;;;;;;;2.05;1.50;;;;;;;16.99;42.86;95322.53;5064274;28;20064;-56
2021/04/30 03:35:33;;;;;;;1.88;1.65;;;;;;;16.99;42.67;95322.53;5064384;28;20080;-56
2021/04/30 03:38:00;;;;;;;1.95;1.73;;;;;;;16.98;43.03;95319.03;5064288;28;20043;-55
2021/04/30 03:40:26;;;;;;;1.58;1.38;;;;;;;16.97;42.73;95322.81;5062522;28;20105;-56
2021/04/30 03:42:51;;;;;;;1.50;1.40;;;;;;;16.97;42.44;95322.81;5064403;28;20103;-56
2021/04/30 03:45:17;;;;;;;1.50;1.40;;;;;;;16.97;42.69;95339.03;5064539;28;20090;-56
2021/04/30 03:47:43;;;;;;;1.30;1.08;;;;;;;16.96;43.04;95332.03;5064112;28;20535;-55
2021/04/30 03:50:09;;;;;;;1.58;1.48;;;;;;;16.97;42.65;95324.72;5063643;28;20488;-55
2021/04/30 03:52:34;;;;;;;1.05;1.05;;;;;;;16.95;42.89;95326.88;5063848;28;20500;-56
2021/04/30 03:55:00;;;;;;;1.52;1.42;;;;;;;16.95;42.75;95324.19;5063941;28;20097;-55
2021/04/30 03:57:26;;;;;;;1.40;1.30;;;;;;;16.94;42.55;95320.69;5067814;28;20068;-56
2021/04/30 03:59:51;;;;;;;1.52;1.17;;;;;;;16.95;42.65;95313.38;5063348;28;20509;-55
2021/04/30 04:02:17;;;;;;;1.55;1.30;;;;;;;16.94;43.01;95311.75;5063707;28;20044;-55
2021/04/30 04:04:43;;;;;;;1.83;1.20;;;;;;;16.94;42.83;95306.31;5065878;28;20149;-55
2021/04/30 04:07:08;;;;;;;1.30;1.20;;;;;;;16.93;42.75;95308.25;5067925;28;20087;-56
2021/04/30 04:09:34;;;;;;;2.42;1.27;;;;;;;16.93;43.00;95312.84;5066444;28;20442;-56
2021/04/30 04:11:59;;;;;;;1.17;1.08;;;;;;;16.93;43.12;95312.84;5067675;28;20542;-56
2021/04/30 04:14:25;;;;;;;2.00;1.50;;;;;;;16.92;42.75;95314.75;5067153;28;20071;-55
2021/04/30 04:16:50;;;;;;;1.20;1.10;;;;;;;16.91;43.14;95313.13;5067648;28;20086;-56
2021/04/30 04:19:17;;;;;;;1.00;1.00;;;;;;;16.90;43.06;95311.53;5068525;28;20071;-56
2021/04/30 04:21:43;;;;;;;1.40;1.30;;;;;;;16.91;43.00;95306.91;5059690;28;20512;-55
2021/04/30 04:24:09;;;;;;;1.05;1.05;;;;;;;16.90;43.03;95306.13;5066977;28;20055;-55
2021/04/30 04:26:34;;;;;;;1.00;1.00;;;;;;;16.90;43.08;95310.69;5067636;28;20071;-56
2021/04/30 04:29:00;;;;;;;1.73;1.10;;;;;;;16.89;42.75;95307.19;5067160;28;20102;-55
2021/04/30 04:31:26;;;;;;;1.58;1.25;;;;;;;16.89;42.63;95301.00;5066933;28;20535;-55
2021/04/30 04:33:51;;;;;;;1.00;1.00;;;;;;;16.87;43.18;95287.75;5067116;28;20048;-55
2021/04/30 04:36:17;;;;;;;1.10;1.10;;;;;;;16.86;43.03;95282.63;5068221;28;20054;-55
2021/04/30 04:38:42;;;;;;;1.00;1.00;;;;;;;16.87;42.85;95289.66;5067173;28;20460;-55
2021/04/30 04:41:08;;;;;;;1.27;1.20;;;;;;;16.86;43.01;95294.25;5066047;28;20126;-55
2021/04/30 04:43:33;;;;;;;1.10;1.10;;;;;;;16.85;43.16;95287.22;5066705;28;20483;-55
2021/04/30 04:45:59;;;;;;;1.40;1.30;;;;;;;16.86;42.82;95293.44;5067117;28;20087;-55
2021/04/30 04:48:25;;;;;;;1.40;1.30;;;;;;;16.85;42.79;95298.03;5066850;28;20519;-56
2021/04/30 04:50:51;;;;;;;1.55;1.45;;;;;;;16.84;42.99;95296.44;5067060;28;20056;-56
2021/04/30 04:53:16;;;;;;;1.33;1.23;;;;;;;16.84;43.08;95296.44;5067662;28;20094;-56
2021/04/30 04:55:42;;;;;;;1.38;1.30;;;;;;;16.85;42.83;95298.03;5066552;28;20040;-56
2021/04/30 04:58:07;;;;;;;1.30;1.20;;;;;;;16.83;42.75;95300.22;5066458;28;20093;-56
2021/04/30 05:00:33;;;;;;;1.38;1.27;;;;;;;16.83;43.01;95299.41;5066338;28;20076;-56
2021/04/30 05:02:59;;;;;;;1.25;1.17;;;;;;;16.83;42.64;95304.84;5065574;28;20084;-56
2021/04/30 05:05:26;;;;;;;1.15;1.05;;;;;;;16.83;42.95;95319.16;5066700;28;20131;-56
2021/04/30 05:07:52;;;;;;;1.67;1.45;;;;;;;16.82;42.86;95325.66;5067077;28;20074;-56
2021/04/30 05:10:19;;;;;;;1.50;1.40;;;;;;;16.82;42.65;95325.66;5050037;28;20044;-56
2021/04/30 05:12:46;;;;;;;1.95;1.80;;;;;;;16.81;43.25;95329.44;5063390;28;20059;-56
2021/04/30 05:15:13;;;;;;;1.90;1.65;;;;;;;16.78;43.00;95330.81;5065565;28;20113;-55
2021/04/30 05:17:38;;;;;;;2.17;1.98;;;;;;;16.79;42.96;95339.72;5065102;28;20547;-56
2021/04/30 05:20:04;;;;;;;2.20;1.90;;;;;;;16.80;42.99;95338.63;5066699;28;20072;-56
2021/04/30 05:22:30;;;;;;;2.20;1.80;;;;;;;16.80;42.83;95349.44;5066641;28;20048;-55
2021/04/30 05:24:55;;;;;;;1.88;1.77;;;;;;;16.79;43.05;95348.66;5066398;28;20068;-56
2021/04/30 05:27:21;;;;;;;1.80;1.70;;;;;;;16.80;42.85;95344.88;5066037;28;20686;-56
2021/04/30 05:29:47;;;;;;;1.48;1.42;;;;;;;16.78;42.92;95338.13;5067253;28;20084;-56
2021/04/30 05:32:12;;;;;;;1.60;1.50;;;;;;;16.79;43.20;95355.94;5064579;28;20056;-56
2021/04/30 05:34:38;;;;;;;2.00;1.90;;;;;;;16.78;43.12;95359.75;5066080;28;20051;-55
2021/04/30 05:37:04;;;;;;;2.10;1.50;;;;;;;16.78;42.78;95359.75;5066343;28;20045;-55
2021/04/30 05:39:30;;;;;;;3.40;1.65;;;;;;;16.76;43.46;95360.03;5066199;28;20060;-56
2021/04/30 05:41:56;;;;;;;1.60;1.50;;;;;;;16.76;43.38;95365.44;5064227;28;20052;-56
2021/04/30 05:44:21;;;;;;;2.38;1.88;;;;;;;16.76;43.26;95381.66;5066378;28;20470;-56
2021/04/30 05:46:47;;;;;;;2.00;1.90;;;;;;;16.76;43.78;95384.34;5066970;28;20155;-55
2021/04/30 05:49:12;;;;;;;1.95;1.80;;;;;;;16.75;43.43;95382.75;5062384;28;20539;-55
2021/04/30 05:51:38;;;;;;;2.35;2.10;;;;;;;16.75;43.62;95388.16;5065087;28;20131;-55
2021/04/30 05:54:04;;;;;;;1.60;1.50;;;;;;;16.76;43.73;95395.19;5066322;28;20535;-56
2021/04/30 05:56:30;;;;;;;2.30;2.10;;;;;;;16.75;43.50;95403.56;5065518;28;20074;-55
2021/04/30 05:58:55;;;;;;;2.15;2.05;;;;;;;16.75;43.46;95407.09;5068489;28;20040;-55
2021/04/30 06:01:22;;;;;;;1.88;1.77;;;;;;;16.74;43.61;95400.06;5066450;28;20052;-56
2021/04/30 06:03:47;;;;;;;1.88;1.77;;;;;;;16.74;43.43;95413.56;5060836;28;20439;-55
2021/04/30 06:06:13;;;;;;;2.20;1.83;;;;;;;16.73;43.17;95417.38;5058589;28;20069;-56
2021/04/30 06:08:38;;;;;;;2.08;1.98;;;;;;;16.73;43.75;95419.25;5065794;28;20091;-55
2021/04/30 06:11:04;;;;;;;1.95;1.85;;;;;;;16.73;43.72;95432.78;5062430;28;20079;-55
2021/04/30 06:13:30;;;;;;;1.63;1.52;;;;;;;16.73;43.60;95430.06;5065613;28;20044;-56
2021/04/30 06:15:56;;;;;;;2.17;2.05;;;;;;;16.73;43.74;95430.91;5064468;28;20040;-55
2021/04/30 06:18:22;;;;;;;1.48;1.40;;;;;;;16.73;43.29;95424.66;5062895;28;20044;-56
2021/04/30 06:20:47;;;;;;;1.98;1.48;;;;;;;16.72;43.38;95423.88;5066868;28;20068;-56
2021/04/30 06:23:13;;;;;;;1.50;1.40;;;;;;;16.71;43.44;95432.25;5064335;28;20091;-55
2021/04/30 06:25:38;;;;;;;1.77;1.67;;;;;;;16.71;43.33;95427.69;5062336;28;20082;-56
2021/04/30 06:28:04;;;;;;;1.58;1.48;;;;;;;16.70;43.62;95434.16;5065223;28;20041;-56
2021/04/30 06:30:29;;;;;;;1.50;1.40;;;;;;;16.72;43.33;95437.38;5065342;28;20066;-55
2021/04/30 06:32:55;;;;;;;2.13;1.45;;;;;;;16.72;43.38;95434.69;5065642;28;20096;-55
2021/04/30 06:35:22;;;;;;;1.45;1.35;;;;;;;16.72;43.66;95434.69;5065839;28;20044;-55
2021/04/30 06:37:48;;;;;;;1.73;1.63;;;;;;;16.72;43.31;95448.22;5063267;28;20063;-55
2021/04/30 06:40:13;;;;;;;1.23;1.23;;;;;;;16.71;43.49;95449.31;5072041;28;20140;-55
2021/04/30 06:42:39;;;;;;;1.50;1.40;;;;;;;16.71;43.56;95446.59;5047065;28;20044;-55
2021/04/30 06:45:08;;;;;;;1.92;1.83;;;;;;;16.72;43.52;95458.22;5064891;28;20041;-55
2021/04/30 06:47:37;;;;;;;1.23;1.23;;;;;;;16.71;43.67;95451.19;5065097;28;20048;-55
2021/04/30 06:50:03;;;;;;;1.40;1.23;;;;;;;16.72;43.56;95455.50;5059763;28;20125;-55
2021/04/30 06:52:28;;;;;;;1.30;1.20;;;;;;;16.72;43.43;95458.22;5052641;28;20504;-55
2021/04/30 06:54:54;;;;;;;1.02;1.02;;;;;;;16.72;43.46;95467.13;5059516;28;20127;-55
2021/04/30 06:57:19;;;;;;;1.55;1.45;;;;;;;16.72;43.51;95469.03;5055774;28;20126;-55
2021/04/30 06:59:45;;;;;;;1.27;1.13;;;;;;;16.72;43.54;95469.03;5053828;28;20503;-55
2021/04/30 07:02:11;;;;;;;1.20;1.20;;;;;;;16.72;43.48;95474.44;5047307;28;20056;-55
2021/04/30 07:04:37;;;;;;;1.15;1.15;;;;;;;16.72;43.62;95477.94;5049673;28;20052;-55
2021/04/30 07:07:03;;;;;;;1.15;1.15;;;;;;;16.73;43.33;95473.34;5047473;28;20059;-55
2021/04/30 07:09:29;;;;;;;1.30;1.20;;;;;;;16.73;43.55;95479.56;5049174;28;20821;-55
2021/04/30 07:11:54;;;;;;;1.85;1.45;;;;;;;16.72;43.49;95477.16;5058360;28;20086;-56
2021/04/30 07:14:20;;;;;;;1.58;1.50;;;;;;;16.71;43.79;95492.56;5061963;28;20052;-55
2021/04/30 07:16:46;;;;;;;1.13;1.10;;;;;;;16.70;43.68;95499.06;5064251;28;20044;-55
2021/04/30 07:19:11;;;;;;;0.98;0.98;;;;;;;16.70;43.57;95495.53;5064696;28;20060;-55
2021/04/30 07:21:37;;;;;;;1.20;1.20;;;;;;;16.69;43.94;95493.91;5064635;28;20080;-55
2021/04/30 07:24:04;;;;;;;1.20;0.90;;;;;;;16.68;44.27;95493.13;5058153;28;20570;-55
2021/04/30 07:26:29;;;;;;;1.73;0.95;;;;;;;16.68;44.15;95500.44;5060204;28;20052;-55
2021/04/30 07:28:55;;;;;;;1.27;1.17;;;;;;;16.68;43.80;95503.13;5058227;28;20542;-57
2021/04/30 07:31:21;;;;;;;1.67;1.05;;;;;;;16.68;44.00;95500.44;5059672;28;20047;-55
2021/04/30 07:33:46;;;;;;;1.25;1.10;;;;;;;16.69;44.23;95496.63;5064537;28;20084;-55
2021/04/30 07:36:15;;;;;;;2.05;1.20;;;;;;;16.67;44.43;95494.22;5064241;28;20076;-56
2021/04/30 07:38:41;;;;;;;1.08;1.00;;;;;;;16.69;44.31;95499.31;5064053;28;20629;-55
2021/04/30 07:41:07;;;;;;;1.10;1.10;;;;;;;16.69;43.99;95504.72;5064498;28;20076;-55
2021/04/30 07:43:33;;;;;;;1.65;1.13;;;;;;;16.70;43.82;95514.47;5064260;28;20068;-55
2021/04/30 07:45:59;;;;;;;2.47;1.00;;;;;;;16.70;43.80;95511.78;5064226;28;20083;-55
2021/04/30 07:48:26;;;;;;;1.30;1.20;;;;;;;16.69;44.14;95513.66;5063721;28;20048;-55
2021/04/30 07:50:52;;;;;;;3.92;1.67;;;;;;;16.70;44.15;95511.78;5064456;28;20048;-56
2021/04/30 07:53:17;;;;;;;2.50;1.20;;;;;;;16.72;44.23;95518.50;5056405;28;20058;-55
2021/04/30 07:55:43;;;;;;;3.97;1.55;;;;;;;16.72;44.08;95525.81;5063762;28;20072;-55
2021/04/30 07:58:09;;;;;;;2.78;1.45;;;;;;;16.72;43.83;95529.31;5063856;28;20377;-55
2021/04/30 08:00:35;;;;;;;2.17;1.20;;;;;;;16.72;44.15;95525.81;5064102;28;20091;-55
2021/04/30 08:03:00;;;;;;;4.97;1.40;;;;;;;16.72;44.47;95525.81;5064089;28;20091;-56
2021/04/30 08:05:26;;;;;;;2.30;1.35;;;;;;;16.73;44.58;95527.41;5062813;28;20142;-57
2021/04/30 08:07:52;;;;;;;1.55;1.40;;;;;;;16.73;44.32;95527.41;5062898;28;20480;-60
2021/04/30 08:10:17;;;;;;;4.53;1.17;;;;;;;16.74;44.43;95531.75;5063451;28;20075;-57
2021/04/30 08:12:43;;;;;;;1.77;1.40;;;;;;;16.73;44.28;95549.88;5063599;28;20044;-58
2021/04/30 08:15:09;;;;;;;3.50;1.40;;;;;;;16.75;44.50;95541.47;5062699;28;20079;-59
2021/04/30 08:17:35;;;;;;;2.78;1.58;;;;;;;16.74;44.35;95551.47;5063670;28;20522;-59
2021/04/30 08:20:03;;;;;;;3.65;1.45;;;;;;;16.74;44.42;95548.78;5046303;28;20045;-59
2021/04/30 08:22:28;;;;;;;4.38;1.55;;;;;;;16.75;44.67;95547.72;5053065;28;20068;-60
2021/04/30 08:24:54;;;;;;;6.30;1.40;;;;;;;16.76;44.44;95545.81;5059782;28;20064;-59
2021/04/30 08:27:20;;;;;;;4.07;1.50;;;;;;;16.76;44.58;95553.91;5059063;28;20091;-60
2021/04/30 08:29:47;;;;;;;5.05;1.88;;;;;;;16.76;44.88;95560.13;5058374;28;20045;-59
2021/04/30 08:32:13;;;;;;;3.83;1.65;;;;;;;16.78;44.89;95538.22;5059057;28;20052;-60
2021/04/30 08:34:38;;;;;;;4.78;1.35;;;;;;;16.79;45.10;95553.34;5047283;28;20506;-62
2021/04/30 08:37:04;;;;;;;3.42;2.00;;;;;;;16.81;44.95;95562.03;5044055;28;20037;-62
2021/04/30 08:39:31;;;;;;;3.03;1.45;;;;;;;16.80;44.65;95555.81;5051830;28;20098;-55
2021/04/30 08:41:56;;;;;;;4.85;1.50;;;;;;;16.82;45.10;95552.84;5050955;28;20050;-64
2021/04/30 08:44:22;;;;;;;3.03;1.42;;;;;;;16.82;44.96;95547.44;5034057;28;20053;-64
2021/04/30 08:46:48;;;;;;;9.18;1.90;;;;;;;16.83;44.67;95565.25;5050994;28;20540;-62
2021/04/30 08:49:13;;;;;;;7.55;1.63;;;;;;;16.83;44.70;95565.25;5051242;28;20068;-64
2021/04/30 08:51:39;;;;;;;13.38;2.10;;;;;;;16.83;44.90;95570.66;5054441;28;20123;-63
2021/04/30 08:54:05;;;;;;;5.68;1.48;;;;;;;16.83;44.99;95577.97;5055350;28;20051;-63
2021/04/30 08:56:31;;;;;;;8.93;1.90;;;;;;;16.83;44.66;95573.38;5059727;28;20048;-60
2021/04/30 08:58:57;;;;;;;6.60;2.10;;;;;;;16.83;44.68;95573.38;5063207;28;20575;-60
2021/04/30 09:01:23;;;;;;;7.03;2.45;;;;;;;16.83;44.77;95580.69;5060001;28;20499;-59
2021/04/30 09:03:51;;;;;;;10.18;1.90;;;;;;;16.84;44.94;95587.69;5064638;28;20094;-67
2021/04/30 09:06:20;;;;;;;8.02;2.60;;;;;;;16.83;44.84;95595.00;5050127;28;20063;-62
2021/04/30 09:08:47;;;;;;;4.47;1.98;;;;;;;16.83;45.12;95595.00;5062791;28;20134;-58
2021/04/30 09:11:29;;;;;;;9.07;2.25;;;;;;;16.83;44.94;95589.59;5056159;28;20420;-58
2021/04/30 09:14:34;;;;;;;3.95;2.30;;;;;;;16.83;44.97;95599.59;5037309;28;20747;-60
2021/04/30 09:17:07;;;;;;;7.13;2.17;;;;;;;16.79;44.20;95602.03;5055259;28;20048;-59
2021/04/30 09:19:33;;;;;;;7.03;2.20;;;;;;;16.77;44.52;95596.09;5053883;28;20037;-58
2021/04/30 09:22:08;;;;;;;7.28;2.15;;;;;;;16.74;44.53;95599.34;5055174;28;20132;-58
2021/04/30 09:24:34;;;;;;;3.95;2.00;;;;;;;16.73;44.71;95603.13;5053760;28;20051;-58
2021/04/30 09:27:00;;;;;;;4.53;2.03;;;;;;;16.72;44.63;95615.06;5054140;28;20068;-57
2021/04/30 09:29:27;;;;;;;6.40;2.22;;;;;;;16.71;44.39;95616.13;5052799;28;20047;-58
2021/04/30 09:31:53;;;;;;;5.60;1.98;;;;;;;16.70;44.80;95614.50;5054871;28;20041;-57
2021/04/30 09:34:30;;;;;;;5.28;2.10;;;;;;;16.69;44.71;95616.41;5053183;28;20079;-59
2021/04/30 09:37:03;;;;;;;6.60;2.10;;;;;;;16.70;44.72;95611.81;5062505;28;20051;-57
2021/04/30 09:39:30;;;;;;;4.97;2.20;;;;;;;16.70;44.77;95617.22;5062472;28;20133;-60
2021/04/30 09:42:06;;;;;;;3.40;2.17;;;;;;;16.69;44.63;95615.59;5058726;28;20066;-55
2021/04/30 09:44:35;;;;;;;;;;;;;;;16.69;44.55;95613.72;5063849;28;20095;-57
2021/04/30 09:47:15;;;;;;;4.00;1.90;;;;;;;16.68;44.88;95601.28;5045759;28;19924;-57
2021/04/30 09:49:41;;;;;;;7.65;2.08;;;;;;;16.71;44.82;95594.50;5054295;28;20367;-58
2021/04/30 09:52:10;;;;;;;8.65;2.30;;;;;;;16.71;44.84;95592.63;5052805;28;20064;-57
2021/04/30 09:54:37;;;;;;;6.47;2.00;;;;;;;16.71;44.67;95592.63;5051035;28;20056;-58
2021/04/30 09:57:04;;;;;;;7.43;2.40;;;;;;;16.72;44.53;95605.03;5049869;28;20049;-60
2021/04/30 09:59:30;;;;;;;4.40;2.55;;;;;;;16.73;44.37;95605.84;5050602;28;20583;-59
2021/04/30 10:02:18;;;;;;;6.57;2.55;;;;;;;16.70;44.85;95606.41;5052862;28;20055;-59
2021/04/30 10:04:45;;;;;;;5.18;2.08;;;;;;;16.70;44.57;95606.41;5051595;28;20048;-60
2021/04/30 10:07:12;;;;;;;2.97;1.77;;;;;;;16.68;44.96;95603.97;5033533;28;20052;-56
2021/04/30 10:09:38;;;;;;;3.30;2.15;;;;;;;16.67;44.85;95594.25;5053180;28;20056;-57
2021/04/30 10:12:23;;;;;;;8.70;2.28;;;;;;;16.68;45.15;95586.94;5051644;28;20115;-57
2021/04/30 10:14:50;;;;;;;5.40;2.13;;;;;;;16.69;44.61;95581.28;5054101;28;20048;-56
2021/04/30 10:17:15;;;;;;;4.20;1.95;;;;;;;16.69;44.82;95580.44;5051657;28;20060;-57
2021/04/30 10:19:42;;;;;;;2.80;1.60;;;;;;;16.71;44.89;95578.25;5051575;28;20518;-56
2021/04/30 10:22:10;;;;;;;8.90;2.97;;;;;;;16.72;44.93;95590.72;5057722;28;20048;-56
2021/04/30 10:24:36;;;;;;;4.65;3.30;;;;;;;16.73;45.53;95603.13;5040339;28;20045;-57
2021/04/30 10:27:01;;;;;;;4.78;2.40;;;;;;;16.75;45.64;95609.06;5054574;28;20040;-57
2021/04/30 10:29:27;;;;;;;4.95;2.25;;;;;;;16.74;45.72;95613.69;5053452;28;20166;-58
2021/04/30 10:31:52;;;;;;;6.95;2.55;;;;;;;16.75;45.98;95612.59;5063798;28;20504;-59
2021/04/30 10:34:26;;;;;;;4.47;2.25;;;;;;;16.76;46.19;95613.41;5064285;28;20238;-57
2021/04/30 10:36:56;;;;;;;3.92;2.40;;;;;;;16.78;46.11;95611.25;5047982;28;20040;-56
2021/04/30 10:39:42;;;;;;;3.25;1.98;;;;;;;16.77;45.83;95609.59;5064758;28;20067;-59
2021/04/30 10:42:12;;;;;;;4.40;2.08;;;;;;;16.79;45.59;95612.84;5063121;28;20420;-58
2021/04/30 10:44:42;;;;;;;6.53;2.30;;;;;;;16.78;45.34;95608.53;5063834;28;20052;-57
2021/04/30 10:47:07;;;;;;;3.13;1.63;;;;;;;16.80;45.66;95611.75;5063830;28;20579;-58
2021/04/30 10:49:39;;;;;;;4.72;2.33;;;;;;;16.82;45.82;95615.03;5054658;28;20128;-58
2021/04/30 10:52:06;;;;;;;2.75;1.95;;;;;;;16.83;45.88;95619.34;5052607;28;20534;-58
2021/04/30 10:54:33;;;;;;;4.88;1.80;;;;;;;16.84;45.85;95617.44;5053780;28;20064;-58
2021/04/30 10:57:07;;;;;;;5.22;1.85;;;;;;;16.84;45.80;95602.03;5054820;28;20048;-58
2021/04/30 10:59:35;;;;;;;5.05;1.88;;;;;;;16.86;45.14;95617.97;5063527;28;20102;-59
2021/04/30 11:02:08;;;;;;;1.65;1.55;;;;;;;16.85;45.57;95611.75;5062576;28;20082;-58
2021/04/30 11:04:34;;;;;;;2.83;1.77;;;;;;;16.87;45.32;95611.50;5051551;28;20056;-58
2021/04/30 11:06:59;;;;;;;3.63;1.90;;;;;;;16.87;45.29;95609.59;5063695;28;20150;-58
2021/04/30 11:09:31;;;;;;;7.03;2.63;;;;;;;16.86;45.43;95618.81;5035995;28;20076;-58
2021/04/30 11:12:02;;;;;;;1.77;1.67;;;;;;;16.86;44.89;95607.97;5053241;28;20044;-58
2021/04/30 11:14:32;;;;;;;2.55;1.75;;;;;;;16.86;45.00;95607.97;5049878;28;20053;-57
2021/04/30 11:16:58;;;;;;;2.33;1.80;;;;;;;16.86;44.97;95602.56;5063638;28;20094;-57
2021/04/30 11:19:31;;;;;;;4.22;1.67;;;;;;;16.85;44.78;95606.34;5062874;28;20099;-58
2021/04/30 11:22:09;;;;;;;4.07;2.22;;;;;;;16.86;44.74;95599.88;5058802;28;20591;-58
2021/04/30 11:24:36;;;;;;;2.97;1.95;;;;;;;16.85;44.70;95595.53;5053861;28;20087;-59
2021/04/30 11:27:08;;;;;;;3.88;1.63;;;;;;;16.84;44.96;95588.53;5062819;28;20044;-57
2021/04/30 11:29:33;;;;;;;1.75;1.65;;;;;;;16.84;45.00;95591.22;5062560;28;20040;-57
2021/04/30 11:32:20;;;;;;;1.58;1.30;;;;;;;16.83;45.04;95581.47;5071563;28;20514;-57